createdAt,value
2017-07-12T00:01:02.337Z,1006.42
2017-07-12T00:02:11.303Z,1006.43
2017-07-12T00:03:20.263Z,1006.39
2017-07-12T00:04:29.225Z,1006.37
2017-07-12T00:05:38.181Z,1006.38
2017-07-12T00:06:46.828Z,1006.36
2017-07-12T00:07:56.728Z,1006.34
2017-07-12T00:09:05.686Z,1006.34
2017-07-12T00:10:14.691Z,1006.34
2017-07-12T00:11:23.421Z,1006.3
2017-07-12T00:12:32.382Z,1006.3
2017-07-12T00:13:41.646Z,1006.27
2017-07-12T00:14:50.604Z,1006.24
2017-07-12T00:15:59.244Z,1006.21
2017-07-12T00:17:08.201Z,1006.26
2017-07-12T00:18:16.849Z,1006.25
2017-07-12T00:19:26.127Z,1006.26
2017-07-12T00:20:34.770Z,1006.23
2017-07-12T00:21:44.046Z,1006.27
2017-07-12T00:22:53.673Z,1006.28
2017-07-12T00:24:02.938Z,1006.26
2017-07-12T00:25:11.582Z,1006.25
2017-07-12T00:26:21.166Z,1006.27
2017-07-12T00:27:30.755Z,1006.31
2017-07-12T00:28:39.713Z,1006.27
2017-07-12T00:29:48.721Z,1006.26
2017-07-12T00:30:58.322Z,1006.25
2017-07-12T00:32:07.291Z,1006.26
2017-07-12T00:33:16.564Z,1006.24
2017-07-12T00:34:25.525Z,1006.21
2017-07-12T00:35:34.175Z,1006.14
2017-07-12T00:36:43.762Z,1006.11
2017-07-12T00:37:53.063Z,1006.09
2017-07-12T00:39:02.019Z,1006.07
2017-07-12T00:40:10.978Z,1006.05
2017-07-12T00:41:19.625Z,1006.07
2017-07-12T00:42:28.266Z,1006.07
2017-07-12T00:43:36.908Z,1006.07
2017-07-12T00:44:46.489Z,1006.07
2017-07-12T00:45:55.145Z,1006.09
2017-07-12T00:47:04.744Z,1006.09
2017-07-12T00:48:13.704Z,1006.09
2017-07-12T00:49:22.973Z,1006.11
2017-07-12T00:50:32.240Z,1006.05
2017-07-12T00:51:41.508Z,1006.05
2017-07-12T00:52:50.780Z,1005.98
2017-07-12T00:54:00.371Z,1005.98
2017-07-12T00:55:09.342Z,1005.93
2017-07-12T00:56:18.953Z,1005.97
2017-07-12T00:57:27.914Z,1005.95
2017-07-12T00:58:37.501Z,1005.97
2017-07-12T00:59:46.455Z,1005.97
2017-07-12T01:00:55.729Z,1005.93
2017-07-12T01:02:05.323Z,1005.89
2017-07-12T01:03:14.593Z,1005.91
2017-07-12T01:04:23.556Z,1005.89
2017-07-12T01:05:32.831Z,1005.86
2017-07-12T01:06:41.491Z,1005.86
2017-07-12T01:07:50.776Z,1005.84
2017-07-12T01:08:59.423Z,1005.84
2017-07-12T01:10:09.007Z,1005.83
2017-07-12T01:11:17.967Z,1005.8
2017-07-12T01:12:26.947Z,1005.77
2017-07-12T01:13:36.227Z,1005.74
2017-07-12T01:14:44.882Z,1005.75
2017-07-12T01:15:54.480Z,1005.67
2017-07-12T01:17:03.759Z,1005.69
2017-07-12T01:18:12.722Z,1005.72
2017-07-12T01:19:22.007Z,1005.7
2017-07-12T01:20:30.966Z,1005.69
2017-07-12T01:21:39.931Z,1005.68
2017-07-12T01:22:49.195Z,1005.66
2017-07-12T01:23:58.173Z,1005.67
2017-07-12T01:25:07.123Z,1005.68
2017-07-12T01:26:16.078Z,1005.65
2017-07-12T01:27:25.036Z,1005.6
2017-07-12T01:28:34.000Z,1005.62
2017-07-12T01:29:43.602Z,1005.6
2017-07-12T01:30:52.899Z,1005.6
2017-07-12T01:32:02.175Z,1005.54
2017-07-12T01:33:11.132Z,1005.54
2017-07-12T01:34:20.089Z,1005.5
2017-07-12T01:35:29.680Z,1005.5
2017-07-12T01:36:38.330Z,1005.48
2017-07-12T01:37:46.978Z,1005.53
2017-07-12T01:38:55.947Z,1005.49
2017-07-12T01:40:04.902Z,1005.49
2017-07-12T01:41:13.876Z,1005.47
2017-07-12T01:42:23.167Z,1005.43
2017-07-12T01:43:32.825Z,1005.42
2017-07-12T01:44:41.484Z,1005.39
2017-07-12T01:45:50.762Z,1005.39
2017-07-12T01:46:59.729Z,1005.39
2017-07-12T01:48:08.700Z,1005.38
2017-07-12T01:49:18.618Z,1005.34
2017-07-12T01:50:27.587Z,1005.34
2017-07-12T01:51:37.173Z,1005.3
2017-07-12T01:52:46.142Z,1005.28
2017-07-12T01:53:55.422Z,1005.29
2017-07-12T01:55:04.403Z,1005.28
2017-07-12T01:56:13.377Z,1005.26
2017-07-12T01:57:22.331Z,1005.28
2017-07-12T01:58:31.613Z,1005.27
2017-07-12T01:59:40.957Z,1005.26
2017-07-12T02:00:50.562Z,1005.28
2017-07-12T02:02:00.158Z,1005.22
2017-07-12T02:03:09.119Z,1005.21
2017-07-12T02:04:17.759Z,1005.15
2017-07-12T02:05:26.722Z,1005.08
2017-07-12T02:06:36.307Z,1005.11
2017-07-12T02:07:46.228Z,1005.06
2017-07-12T02:08:55.198Z,1005.09
2017-07-12T02:10:03.840Z,1005.06
2017-07-12T02:11:12.494Z,1005.03
2017-07-12T02:12:21.481Z,1004.97
2017-07-12T02:13:30.121Z,1004.95
2017-07-12T02:14:39.707Z,1004.92
2017-07-12T02:15:48.974Z,1004.92
2017-07-12T02:16:57.933Z,1004.91
2017-07-12T02:18:06.574Z,1004.87
2017-07-12T02:19:16.176Z,1004.85
2017-07-12T02:20:25.461Z,1004.86
2017-07-12T02:21:34.726Z,1004.83
2017-07-12T02:22:44.005Z,1004.84
2017-07-12T02:23:52.969Z,1004.82
2017-07-12T02:25:01.609Z,1004.83
2017-07-12T02:26:10.579Z,1004.8
2017-07-12T02:27:19.865Z,1004.81
2017-07-12T02:28:29.137Z,1004.78
2017-07-12T02:29:38.403Z,1004.77
2017-07-12T02:30:47.375Z,1004.74
2017-07-12T02:31:56.336Z,1004.71
2017-07-12T02:33:05.296Z,1004.7
2017-07-12T02:34:13.936Z,1004.67
2017-07-12T02:35:23.530Z,1004.68
2017-07-12T02:36:32.176Z,1004.62
2017-07-12T02:37:41.517Z,1004.6
2017-07-12T02:38:50.791Z,1004.63
2017-07-12T02:40:00.056Z,1004.61
2017-07-12T02:41:09.339Z,1004.59
2017-07-12T02:42:18.636Z,1004.52
2017-07-12T02:43:27.594Z,1004.54
2017-07-12T02:44:36.870Z,1004.51
2017-07-12T02:45:46.462Z,1004.54
2017-07-12T02:46:55.428Z,1004.51
2017-07-12T02:48:04.698Z,1004.55
2017-07-12T02:49:13.338Z,1004.52
2017-07-12T02:50:21.991Z,1004.5
2017-07-12T02:51:31.580Z,1004.47
2017-07-12T02:52:40.540Z,1004.45
2017-07-12T02:53:49.819Z,1004.45
2017-07-12T02:54:58.860Z,1004.44
2017-07-12T02:56:08.761Z,1004.44
2017-07-12T02:57:17.721Z,1004.45
2017-07-12T02:58:26.358Z,1004.43
2017-07-12T02:59:35.628Z,1004.43
2017-07-12T03:00:44.902Z,1004.35
2017-07-12T03:01:54.187Z,1004.31
2017-07-12T03:03:03.149Z,1004.29
2017-07-12T03:04:12.121Z,1004.26
2017-07-12T03:05:21.743Z,1004.25
2017-07-12T03:06:30.707Z,1004.24
2017-07-12T03:07:40.289Z,1004.25
2017-07-12T03:08:48.952Z,1004.26
2017-07-12T03:09:58.549Z,1004.27
2017-07-12T03:11:07.830Z,1004.25
2017-07-12T03:12:17.107Z,1004.22
2017-07-12T03:13:26.394Z,1004.25
2017-07-12T03:14:35.664Z,1004.27
2017-07-12T03:15:44.311Z,1004.28
2017-07-12T03:16:53.587Z,1004.29
2017-07-12T03:18:02.227Z,1004.3
2017-07-12T03:19:11.189Z,1004.35
2017-07-12T03:20:20.162Z,1004.34
2017-07-12T03:21:29.746Z,1004.34
2017-07-12T03:22:38.705Z,1004.38
2017-07-12T03:23:47.357Z,1004.4
2017-07-12T03:24:56.026Z,1004.42
2017-07-12T03:26:05.313Z,1004.38
2017-07-12T03:27:14.281Z,1004.35
2017-07-12T03:28:23.554Z,1004.36
2017-07-12T03:29:32.529Z,1004.27
2017-07-12T03:30:41.175Z,1004.26
2017-07-12T03:31:49.818Z,1004.34
2017-07-12T03:32:58.777Z,1004.31
2017-07-12T03:34:07.571Z,1004.34
2017-07-12T03:35:17.165Z,1004.33
2017-07-12T03:36:26.757Z,1004.34
2017-07-12T03:37:36.356Z,1004.32
2017-07-12T03:38:45.631Z,1004.34
2017-07-12T03:39:54.283Z,1004.32
2017-07-12T03:41:02.928Z,1004.31
2017-07-12T03:42:11.883Z,1004.29
2017-07-12T03:43:20.534Z,1004.34
2017-07-12T03:44:29.191Z,1004.29
2017-07-12T03:45:38.768Z,1004.3
2017-07-12T03:46:48.047Z,1004.28
2017-07-12T03:47:57.651Z,1004.25
2017-07-12T03:49:06.613Z,1004.23
2017-07-12T03:50:15.573Z,1004.21
2017-07-12T03:51:24.531Z,1004.18
2017-07-12T03:52:33.168Z,1004.17
2017-07-12T03:53:42.122Z,1004.22
2017-07-12T03:54:50.772Z,1004.19
2017-07-12T03:56:00.045Z,1004.19
2017-07-12T03:57:09.007Z,1004.18
2017-07-12T03:58:17.654Z,1004.2
2017-07-12T03:59:26.613Z,1004.15
2017-07-12T04:00:35.577Z,1004.12
2017-07-12T04:01:44.258Z,1004.11
2017-07-12T04:02:52.918Z,1004.07
2017-07-12T04:04:01.554Z,1004.02
2017-07-12T04:05:11.143Z,1003.97
2017-07-12T04:06:20.112Z,1004.02
2017-07-12T04:07:28.770Z,1004.07
2017-07-12T04:08:37.726Z,1004.09
2017-07-12T04:09:46.679Z,1004.18
2017-07-12T04:10:55.952Z,1004.18
2017-07-12T04:12:04.645Z,1004.21
2017-07-12T04:13:13.287Z,1004.26
2017-07-12T04:14:22.246Z,1004.24
2017-07-12T04:15:30.920Z,1004.21
2017-07-12T04:16:39.564Z,1004.1
2017-07-12T04:17:48.539Z,1004.05
2017-07-12T04:18:57.212Z,1004.04
2017-07-12T04:20:06.200Z,1004.08
2017-07-12T04:21:15.184Z,1004.01
2017-07-12T04:22:23.822Z,1003.92
2017-07-12T04:23:32.486Z,1003.94
2017-07-12T04:24:41.138Z,1003.87
2017-07-12T04:25:50.099Z,1003.9
2017-07-12T04:26:59.389Z,1003.83
2017-07-12T04:28:08.666Z,1003.81
2017-07-12T04:29:17.621Z,1003.78
2017-07-12T04:30:26.297Z,1003.78
2017-07-12T04:31:35.281Z,1003.78
2017-07-12T04:32:44.570Z,1003.75
2017-07-12T04:33:53.536Z,1003.72
2017-07-12T04:35:02.256Z,1003.71
2017-07-12T04:36:11.247Z,1003.7
2017-07-12T04:37:19.895Z,1003.7
2017-07-12T04:38:28.536Z,1003.73
2017-07-12T04:39:37.853Z,1003.71
2017-07-12T04:40:46.527Z,1003.71
2017-07-12T04:41:55.796Z,1003.68
2017-07-12T04:43:04.443Z,1003.65
2017-07-12T04:44:13.416Z,1003.68
2017-07-12T04:45:22.369Z,1003.77
2017-07-12T04:46:31.971Z,1003.82
2017-07-12T04:47:40.943Z,1003.84
2017-07-12T04:48:50.566Z,1003.8
2017-07-12T04:49:59.225Z,1003.73
2017-07-12T04:51:07.937Z,1003.62
2017-07-12T04:52:16.917Z,1003.54
2017-07-12T04:53:26.196Z,1003.46
2017-07-12T04:54:35.159Z,1003.47
2017-07-12T04:55:43.807Z,1003.59
2017-07-12T04:56:52.754Z,1003.64
2017-07-12T04:58:01.716Z,1003.69
2017-07-12T04:59:11.002Z,1003.71
2017-07-12T05:00:19.980Z,1003.7
2017-07-12T05:01:28.952Z,1003.69
2017-07-12T05:02:37.913Z,1003.63
2017-07-12T05:03:46.557Z,1003.64
2017-07-12T05:04:56.149Z,1003.62
2017-07-12T05:06:05.103Z,1003.62
2017-07-12T05:07:14.400Z,1003.56
2017-07-12T05:08:23.694Z,1003.59
2017-07-12T05:09:33.005Z,1003.62
2017-07-12T05:10:42.307Z,1003.64
2017-07-12T05:11:51.272Z,1003.64
2017-07-12T05:12:59.916Z,1003.65
2017-07-12T05:14:09.212Z,1003.66
2017-07-12T05:15:18.487Z,1003.66
2017-07-12T05:16:27.770Z,1003.66
2017-07-12T05:17:36.412Z,1003.69
2017-07-12T05:18:45.701Z,1003.67
2017-07-12T05:19:54.346Z,1003.67
2017-07-12T05:21:03.003Z,1003.69
2017-07-12T05:22:11.648Z,1003.67
2017-07-12T05:23:20.599Z,1003.69
2017-07-12T05:24:29.887Z,1003.67
2017-07-12T05:25:38.550Z,1003.69
2017-07-12T05:26:47.823Z,1003.67
2017-07-12T05:27:57.416Z,1003.71
2017-07-12T05:29:06.681Z,1003.72
2017-07-12T05:30:15.654Z,1003.7
2017-07-12T05:31:24.613Z,1003.72
2017-07-12T05:32:33.255Z,1003.71
2017-07-12T05:33:42.214Z,1003.69
2017-07-12T05:34:51.480Z,1003.65
2017-07-12T05:36:00.447Z,1003.69
2017-07-12T05:37:09.414Z,1003.66
2017-07-12T05:38:18.678Z,1003.66
2017-07-12T05:39:27.959Z,1003.66
2017-07-12T05:40:37.694Z,1003.72
2017-07-12T05:41:46.650Z,1003.69
2017-07-12T05:42:55.924Z,1003.67
2017-07-12T05:44:05.835Z,1003.68
2017-07-12T05:45:14.482Z,1003.62
2017-07-12T05:46:23.767Z,1003.65
2017-07-12T05:47:32.727Z,1003.64
2017-07-12T05:48:42.316Z,1003.65
2017-07-12T05:49:51.272Z,1003.64
2017-07-12T05:50:59.942Z,1003.63
2017-07-12T05:52:09.522Z,1003.67
2017-07-12T05:53:18.485Z,1003.63
2017-07-12T05:54:28.397Z,1003.6
2017-07-12T05:55:37.102Z,1003.56
2017-07-12T05:56:46.120Z,1003.54
2017-07-12T05:57:55.395Z,1003.57
2017-07-12T05:59:04.670Z,1003.56
2017-07-12T06:00:13.947Z,1003.54
2017-07-12T06:01:22.907Z,1003.54
2017-07-12T06:02:31.862Z,1003.46
2017-07-12T06:03:40.508Z,1003.49
2017-07-12T06:04:49.469Z,1003.51
2017-07-12T06:05:58.427Z,1003.45
2017-07-12T06:07:07.449Z,1003.46
2017-07-12T06:08:16.425Z,1003.47
2017-07-12T06:09:25.402Z,1003.45
2017-07-12T06:10:34.067Z,1003.44
2017-07-12T06:11:43.338Z,1003.42
2017-07-12T06:12:52.923Z,1003.44
2017-07-12T06:14:01.885Z,1003.43
2017-07-12T06:15:11.153Z,1003.42
2017-07-12T06:16:20.121Z,1003.41
2017-07-12T06:17:29.076Z,1003.42
2017-07-12T06:18:38.031Z,1003.43
2017-07-12T06:19:47.306Z,1003.43
2017-07-12T06:20:55.981Z,1003.4
2017-07-12T06:22:04.943Z,1003.4
2017-07-12T06:23:13.603Z,1003.41
2017-07-12T06:24:22.560Z,1003.39
2017-07-12T06:25:31.840Z,1003.43
2017-07-12T06:26:41.428Z,1003.42
2017-07-12T06:27:50.391Z,1003.4
2017-07-12T06:28:59.976Z,1003.36
2017-07-12T06:30:09.584Z,1003.34
2017-07-12T06:31:18.569Z,1003.31
2017-07-12T06:32:28.176Z,1003.29
2017-07-12T06:33:37.479Z,1003.28
2017-07-12T06:34:47.077Z,1003.26
2017-07-12T06:35:55.738Z,1003.23
2017-07-12T06:37:04.391Z,1003.22
2017-07-12T06:38:13.046Z,1003.25
2017-07-12T06:39:22.009Z,1003.2
2017-07-12T06:40:31.282Z,1003.22
2017-07-12T06:41:40.572Z,1003.16
2017-07-12T06:42:49.856Z,1003.19
2017-07-12T06:43:58.822Z,1003.16
2017-07-12T06:45:07.476Z,1003.15
2017-07-12T06:46:16.446Z,1003.09
2017-07-12T06:47:25.734Z,1003.06
2017-07-12T06:48:34.704Z,1003.03
2017-07-12T06:49:43.997Z,1003.02
2017-07-12T06:50:52.958Z,1003.06
2017-07-12T06:52:02.249Z,1003.04
2017-07-12T06:53:10.900Z,1003.01
2017-07-12T06:54:19.868Z,1002.97
2017-07-12T06:55:28.831Z,1002.99
2017-07-12T06:56:38.417Z,1003.01
2017-07-12T06:57:47.698Z,1003.02
2017-07-12T06:58:57.298Z,1003.02
2017-07-12T07:00:06.279Z,1003.01
2017-07-12T07:01:15.245Z,1002.99
2017-07-12T07:02:24.838Z,1002.95
2017-07-12T07:03:33.808Z,1002.93
2017-07-12T07:04:43.088Z,1002.92
2017-07-12T07:05:52.385Z,1002.91
2017-07-12T07:07:01.664Z,1002.92
2017-07-12T07:08:10.627Z,1002.91
2017-07-12T07:09:19.279Z,1002.93
2017-07-12T07:10:28.249Z,1002.83
2017-07-12T07:11:36.907Z,1002.84
2017-07-12T07:12:45.874Z,1002.84
2017-07-12T07:13:54.849Z,1002.84
2017-07-12T07:15:04.189Z,1002.82
2017-07-12T07:16:13.474Z,1002.76
2017-07-12T07:17:22.468Z,1002.76
2017-07-12T07:18:31.128Z,1002.76
2017-07-12T07:19:40.104Z,1002.78
2017-07-12T07:20:49.704Z,1002.78
2017-07-12T07:21:58.360Z,1002.81
2017-07-12T07:23:07.328Z,1002.74
2017-07-12T07:24:16.320Z,1002.77
2017-07-12T07:25:25.627Z,1002.76
2017-07-12T07:26:34.293Z,1002.79
2017-07-12T07:27:43.257Z,1002.79
2017-07-12T07:28:52.539Z,1002.77
2017-07-12T07:30:01.514Z,1002.76
2017-07-12T07:31:10.804Z,1002.74
2017-07-12T07:32:19.464Z,1002.73
2017-07-12T07:33:29.388Z,1002.75
2017-07-12T07:34:38.388Z,1002.75
2017-07-12T07:35:47.686Z,1002.78
2017-07-12T07:36:56.342Z,1002.75
2017-07-12T07:38:04.989Z,1002.79
2017-07-12T07:39:13.947Z,1002.77
2017-07-12T07:40:23.564Z,1002.75
2017-07-12T07:41:32.223Z,1002.78
2017-07-12T07:42:41.188Z,1002.77
2017-07-12T07:43:49.842Z,1002.75
2017-07-12T07:44:58.818Z,1002.82
2017-07-12T07:46:07.804Z,1002.83
2017-07-12T07:47:16.792Z,1002.82
2017-07-12T07:48:25.758Z,1002.82
2017-07-12T07:49:35.350Z,1002.83
2017-07-12T07:50:44.345Z,1002.83
2017-07-12T07:51:53.317Z,1002.85
2017-07-12T07:53:02.602Z,1002.8
2017-07-12T07:54:11.563Z,1002.8
2017-07-12T07:55:20.848Z,1002.74
2017-07-12T07:56:29.809Z,1002.75
2017-07-12T07:57:38.780Z,1002.77
2017-07-12T07:58:47.434Z,1002.78
2017-07-12T07:59:56.397Z,1002.74
2017-07-12T08:01:05.057Z,1002.66
2017-07-12T08:02:13.713Z,1002.7
2017-07-12T08:03:22.690Z,1002.68
2017-07-12T08:04:31.710Z,1002.71
2017-07-12T08:05:40.685Z,1002.68
2017-07-12T08:06:49.961Z,1002.69
2017-07-12T08:07:58.930Z,1002.7
2017-07-12T08:09:07.581Z,1002.64
2017-07-12T08:10:16.865Z,1002.67
2017-07-12T08:11:25.848Z,1002.65
2017-07-12T08:12:34.806Z,1002.62
2017-07-12T08:13:44.726Z,1002.65
2017-07-12T08:14:53.694Z,1002.65
2017-07-12T08:16:03.285Z,1002.64
2017-07-12T08:17:12.242Z,1002.6
2017-07-12T08:18:22.161Z,1002.62
2017-07-12T08:19:31.135Z,1002.6
2017-07-12T08:20:40.426Z,1002.58
2017-07-12T08:21:49.398Z,1002.58
2017-07-12T08:22:58.372Z,1002.6
2017-07-12T08:24:07.656Z,1002.61
2017-07-12T08:25:16.617Z,1002.62
2017-07-12T08:26:26.221Z,1002.57
2017-07-12T08:27:35.818Z,1002.56
2017-07-12T08:28:45.111Z,1002.6
2017-07-12T08:29:54.396Z,1002.62
2017-07-12T08:31:03.355Z,1002.6
2017-07-12T08:32:12.011Z,1002.58
2017-07-12T08:33:20.672Z,1002.62
2017-07-12T08:34:29.334Z,1002.6
2017-07-12T08:35:38.001Z,1002.6
2017-07-12T08:36:47.659Z,1002.64
2017-07-12T08:37:56.947Z,1002.64
2017-07-12T08:39:06.556Z,1002.63
2017-07-12T08:40:15.517Z,1002.56
2017-07-12T08:41:24.476Z,1002.58
2017-07-12T08:42:33.763Z,1002.52
2017-07-12T08:43:43.419Z,1002.5
2017-07-12T08:44:52.701Z,1002.46
2017-07-12T08:46:01.412Z,1002.42
2017-07-12T08:47:11.013Z,1002.4
2017-07-12T08:48:19.982Z,1002.41
2017-07-12T08:49:29.589Z,1002.41
2017-07-12T08:50:38.229Z,1002.4
2017-07-12T08:51:47.836Z,1002.36
2017-07-12T08:52:56.808Z,1002.43
2017-07-12T08:54:05.449Z,1002.47
2017-07-12T08:55:14.731Z,1002.49
2017-07-12T08:56:23.741Z,1002.46
2017-07-12T08:57:32.661Z,1002.52
2017-07-12T08:58:41.635Z,1002.42
2017-07-12T08:59:50.637Z,1002.4
2017-07-12T09:00:59.295Z,1002.34
2017-07-12T09:10:41.732Z,1002.47
2017-07-12T09:11:51.316Z,1002.5
2017-07-12T09:13:00.276Z,1002.45
2017-07-12T09:14:08.943Z,1002.47
2017-07-12T09:15:18.233Z,1002.51
2017-07-12T09:16:27.516Z,1002.51
2017-07-12T09:17:36.500Z,1002.51
2017-07-12T09:18:45.477Z,1002.48
2017-07-12T09:19:54.802Z,1002.51
2017-07-12T09:21:04.183Z,1002.47
2017-07-12T09:22:13.468Z,1002.49
2017-07-12T09:23:22.507Z,1002.49
2017-07-12T09:33:56.552Z,1002.57
2017-07-12T09:35:05.516Z,1002.55
2017-07-12T09:36:14.839Z,1002.54
2017-07-12T09:37:23.525Z,1002.51
2017-07-12T09:38:33.591Z,1002.55
2017-07-12T09:39:42.563Z,1002.56
2017-07-12T09:40:51.528Z,1002.54
2017-07-12T09:42:01.121Z,1002.57
2017-07-12T09:43:10.093Z,1002.54
2017-07-12T09:44:19.398Z,1002.58
2017-07-12T09:45:28.059Z,1002.57
2017-07-12T09:46:37.649Z,1002.54
2017-07-12T09:47:46.330Z,1002.51
2017-07-12T09:48:54.985Z,1002.53
2017-07-12T09:50:04.069Z,1002.52
2017-07-12T09:51:12.776Z,1002.51
2017-07-12T09:52:22.085Z,1002.5
2017-07-12T09:53:31.692Z,1002.51
2017-07-12T09:54:41.304Z,1002.54
2017-07-12T09:55:50.100Z,1002.54
2017-07-12T09:56:59.068Z,1002.56
2017-07-12T09:58:08.030Z,1002.55
2017-07-12T09:59:17.306Z,1002.51
2017-07-12T10:00:26.577Z,1002.49
2017-07-12T10:01:35.698Z,1002.53
2017-07-12T10:02:44.671Z,1002.55
2017-07-12T10:03:53.949Z,1002.56
2017-07-12T10:05:02.910Z,1002.54
2017-07-12T10:06:11.885Z,1002.59
2017-07-12T10:07:21.306Z,1002.55
2017-07-12T10:08:30.583Z,1002.53
2017-07-12T10:09:39.882Z,1002.56
2017-07-12T10:10:49.164Z,1002.56
2017-07-12T10:11:58.456Z,1002.53
2017-07-12T10:13:07.115Z,1002.52
2017-07-12T10:14:16.410Z,1002.54
2017-07-12T10:15:25.383Z,1002.51
2017-07-12T10:16:34.668Z,1002.52
2017-07-12T10:17:43.319Z,1002.48
2017-07-12T10:18:52.398Z,1002.49
2017-07-12T10:20:01.682Z,1002.44
2017-07-12T10:21:10.954Z,1002.46
2017-07-12T10:22:19.940Z,1002.41
2017-07-12T10:23:28.920Z,1002.42
2017-07-12T10:24:38.308Z,1002.43
2017-07-12T10:25:47.273Z,1002.42
2017-07-12T10:26:56.250Z,1002.4
2017-07-12T10:28:05.536Z,1002.42
2017-07-12T10:29:14.203Z,1002.41
2017-07-12T10:30:23.176Z,1002.43
2017-07-12T10:31:32.131Z,1002.44
2017-07-12T10:32:41.093Z,1002.41
2017-07-12T10:33:50.056Z,1002.42
2017-07-12T10:34:59.332Z,1002.42
2017-07-12T10:36:08.980Z,1002.44
2017-07-12T10:37:18.261Z,1002.37
2017-07-12T10:38:27.221Z,1002.31
2017-07-12T10:39:36.199Z,1002.38
2017-07-12T10:40:45.155Z,1002.38
2017-07-12T10:41:54.280Z,1002.39
2017-07-12T10:43:02.931Z,1002.46
2017-07-12T10:44:12.848Z,1002.42
2017-07-12T10:45:21.823Z,1002.46
2017-07-12T10:46:30.455Z,1002.45
2017-07-12T10:47:39.722Z,1002.44
2017-07-12T10:48:48.676Z,1002.53
2017-07-12T10:49:57.347Z,1002.42
2017-07-12T10:51:06.617Z,1002.43
2017-07-12T10:52:15.895Z,1002.46
2017-07-12T10:53:24.693Z,1002.48
2017-07-12T10:54:33.661Z,1002.55
2017-07-12T10:55:43.255Z,1002.57
2017-07-12T10:56:52.214Z,1002.6
2017-07-12T10:58:01.179Z,1002.58
2017-07-12T10:59:10.618Z,1002.56
2017-07-12T11:00:19.574Z,1002.54
2017-07-12T11:01:28.579Z,1002.59
2017-07-12T11:02:38.174Z,1002.53
2017-07-12T11:03:47.450Z,1002.49
2017-07-12T11:04:57.038Z,1002.47
2017-07-12T11:06:06.005Z,1002.48
2017-07-12T11:07:15.285Z,1002.5
2017-07-12T11:08:24.878Z,1002.49
2017-07-12T11:09:33.530Z,1002.47
2017-07-12T11:10:42.337Z,1002.45
2017-07-12T11:11:51.608Z,1002.49
2017-07-12T11:13:00.880Z,1002.5
2017-07-12T11:14:09.534Z,1002.56
2017-07-12T11:15:18.499Z,1002.49
2017-07-12T11:16:27.466Z,1002.47
2017-07-12T11:17:36.430Z,1002.48
2017-07-12T11:18:45.707Z,1002.5
2017-07-12T11:19:54.994Z,1002.48
2017-07-12T11:21:03.952Z,1002.45
2017-07-12T11:22:13.063Z,1002.49
2017-07-12T11:23:21.703Z,1002.51
2017-07-12T11:24:30.661Z,1002.49
2017-07-12T11:25:39.624Z,1002.5
2017-07-12T11:29:21.093Z,1002.49
2017-07-12T11:30:30.059Z,1002.47
2017-07-12T11:31:39.640Z,1002.49
2017-07-12T11:32:48.674Z,1002.47
2017-07-12T11:33:57.322Z,1002.44
2017-07-12T11:35:06.753Z,1002.42
2017-07-12T11:36:16.035Z,1002.38
2017-07-12T11:37:24.682Z,1002.39
2017-07-12T11:38:33.326Z,1002.39
2017-07-12T11:39:42.601Z,1002.37
2017-07-12T11:40:51.864Z,1002.4
2017-07-12T11:44:33.193Z,1002.39
2017-07-12T11:48:14.527Z,1002.45
2017-07-12T11:51:56.492Z,1002.46
2017-07-12T11:53:05.510Z,1002.49
2017-07-12T11:54:14.477Z,1002.42
2017-07-12T11:59:06.598Z,1002.58
2017-07-12T12:00:16.200Z,1002.62
2017-07-12T12:01:25.166Z,1002.6
2017-07-12T12:02:34.456Z,1002.53
2017-07-12T12:03:44.034Z,1002.59
2017-07-12T12:04:52.997Z,1002.57
2017-07-12T12:06:02.299Z,1002.62
2017-07-12T12:07:12.218Z,1002.62
2017-07-12T12:08:22.449Z,1002.57
2017-07-12T12:09:31.409Z,1002.63
2017-07-12T12:10:40.673Z,1002.6
2017-07-12T12:11:50.267Z,1002.62
2017-07-12T12:12:59.545Z,1002.67
2017-07-12T12:14:08.515Z,1002.62
2017-07-12T12:15:17.512Z,1002.58
2017-07-12T12:16:26.902Z,1002.6
2017-07-12T12:17:36.173Z,1002.55
2017-07-12T12:18:45.142Z,1002.58
2017-07-12T12:19:54.154Z,1002.6
2017-07-12T12:21:03.428Z,1002.59
2017-07-12T12:22:12.501Z,1002.63
2017-07-12T12:23:21.769Z,1002.7
2017-07-12T12:24:31.358Z,1002.77
2017-07-12T12:25:40.079Z,1002.87
2017-07-12T12:26:49.357Z,1003
2017-07-12T12:27:58.317Z,1002.94
2017-07-12T12:29:07.288Z,1003.03
2017-07-12T12:30:16.252Z,1003.05
2017-07-12T12:31:25.217Z,1003.1
2017-07-12T12:32:34.498Z,1003.17
2017-07-12T12:33:43.945Z,1003.35
2017-07-12T12:34:53.542Z,1003.64
2017-07-12T12:36:02.202Z,1003.82
2017-07-12T12:37:11.485Z,1004
2017-07-12T12:38:20.768Z,1004.07
2017-07-12T12:39:30.149Z,1004.12
2017-07-12T12:40:39.132Z,1004.16
2017-07-12T12:41:48.405Z,1004.18
2017-07-12T12:42:57.064Z,1004.25
2017-07-12T12:44:06.021Z,1004.24
2017-07-12T12:45:15.454Z,1004.19
2017-07-12T12:46:24.114Z,1004.03
2017-07-12T12:47:33.383Z,1003.99
2017-07-12T12:48:42.339Z,1003.9
2017-07-12T12:49:51.605Z,1003.85
2017-07-12T12:51:00.659Z,1003.68
2017-07-12T12:52:10.562Z,1003.45
2017-07-12T12:53:20.147Z,1003.29
2017-07-12T12:54:29.744Z,1003.11
2017-07-12T12:55:38.391Z,1003.02
2017-07-12T12:56:47.838Z,1003.11
2017-07-12T12:57:57.430Z,1003.38
2017-07-12T12:59:06.070Z,1003.67
2017-07-12T13:00:15.024Z,1003.87
2017-07-12T13:01:24.608Z,1004.08
2017-07-12T13:02:33.711Z,1004.08
2017-07-12T13:03:43.309Z,1004.07
2017-07-12T13:04:52.884Z,1004.02
2017-07-12T13:06:02.156Z,1004.02
2017-07-12T13:07:11.433Z,1004.1
2017-07-12T13:08:20.481Z,1004.07
2017-07-12T13:09:29.761Z,1004.16
2017-07-12T13:10:39.031Z,1004.24
2017-07-12T13:11:48.312Z,1004.34
2017-07-12T13:12:57.265Z,1004.38
2017-07-12T13:14:06.380Z,1004.44
2017-07-12T13:15:15.971Z,1004.51
2017-07-12T13:16:25.558Z,1004.63
2017-07-12T13:17:34.214Z,1004.74
2017-07-12T13:18:43.149Z,1004.73
2017-07-12T13:19:51.950Z,1004.75
2017-07-12T13:21:01.236Z,1004.76
2017-07-12T13:22:10.820Z,1004.91
2017-07-12T13:23:20.148Z,1005.14
2017-07-12T13:24:29.417Z,1005.36
2017-07-12T13:25:39.351Z,1005.4
2017-07-12T13:26:48.615Z,1005.41
2017-07-12T13:27:57.914Z,1005.43
2017-07-12T13:29:06.879Z,1005.54
2017-07-12T13:30:15.834Z,1005.58
2017-07-12T13:31:25.575Z,1005.54
2017-07-12T13:32:34.218Z,1005.51
2017-07-12T13:33:43.175Z,1005.36
2017-07-12T13:34:52.453Z,1005.28
2017-07-12T13:36:01.404Z,1005.31
2017-07-12T13:37:11.028Z,1005.31
2017-07-12T13:38:19.990Z,1005.36
2017-07-12T13:39:28.947Z,1005.39
2017-07-12T13:40:38.224Z,1005.41
2017-07-12T13:41:47.814Z,1005.47
2017-07-12T13:42:57.146Z,1005.53
2017-07-12T13:44:05.801Z,1005.63
2017-07-12T13:45:15.386Z,1005.66
2017-07-12T13:46:24.357Z,1005.64
2017-07-12T13:47:33.634Z,1005.67
2017-07-12T13:48:42.755Z,1005.69
2017-07-12T13:49:51.402Z,1005.67
2017-07-12T13:51:00.672Z,1005.69
2017-07-12T13:52:09.626Z,1005.75
2017-07-12T13:53:19.233Z,1005.76
2017-07-12T13:54:28.977Z,1005.81
2017-07-12T13:55:37.627Z,1005.83
2017-07-12T13:56:46.896Z,1005.82
2017-07-12T13:57:55.858Z,1005.92
2017-07-12T13:59:05.133Z,1005.99
2017-07-12T14:00:15.174Z,1006.08
2017-07-12T14:01:24.443Z,1006.13
2017-07-12T14:02:33.414Z,1006.12
2017-07-12T14:03:42.685Z,1006.2
2017-07-12T14:04:51.965Z,1006.25
2017-07-12T14:06:00.687Z,1006.34
2017-07-12T14:07:09.970Z,1006.41
2017-07-12T14:08:18.613Z,1006.46
2017-07-12T14:09:27.572Z,1006.54
2017-07-12T14:10:36.519Z,1006.58
2017-07-12T14:11:45.476Z,1006.61
2017-07-12T14:12:54.134Z,1006.61
2017-07-12T14:14:02.778Z,1006.69
2017-07-12T14:15:12.083Z,1006.75
2017-07-12T14:16:21.679Z,1006.76
2017-07-12T14:17:31.418Z,1006.79
2017-07-12T14:18:40.712Z,1006.85
2017-07-12T14:19:49.984Z,1006.9
2017-07-12T14:20:59.567Z,1006.99
2017-07-12T14:22:08.532Z,1007
2017-07-12T14:23:17.562Z,1007.02
2017-07-12T14:24:26.518Z,1007.08
2017-07-12T14:25:36.102Z,1007.11
2017-07-12T14:26:45.065Z,1007.13
2017-07-12T14:27:54.662Z,1007.21
2017-07-12T14:29:03.468Z,1007.31
2017-07-12T14:30:12.428Z,1007.37
2017-07-12T14:31:21.398Z,1007.38